ROMMA est une association bénévole à but non lucratif. Votre soutien est indispensable : ADHERER à ROMMA ou FAIRE un DON

Crest - (26, Drôme)

Vallée de la Drôme (315 m)   Longitude: 5°2' E   Latitude: 44°44' N Station partenaire n°62
 

Détail journalier du     <<     >>

Température Precipitation Humidité Pression Vent Dir Rafale Dir. rafale Ensol.
Heure (°C) (mm) (%) (hPa) (km/h) (km/h) (min)
01:00 13.906010135SSE16SSE0
02:00 12.807310148S21S0
03:00 12.707310156SSE16SSE0
04:00 12.407610154SE11SE0
05:00 11.708010164SSE13SE0
06:00 11.208210162S10S0
07:00 10.308510163S10S0
08:00 10.208610171---3S0
09:00 9.208710172SE8SE17
10:00 11.408110172E10E59
11:00 12.807310173SE10SE60
12:00 15.206510173SE13SSE59
13:00 14.606910177SE16SSE26
14:00 14.9069101710SE26SE55
15:00 14.7072101610SE23SE57
16:00 14.407210169SE21SE31
17:00 14.406910167SE16SE11
18:00 13.607210179SSE23SE0
19:00 12.707510177SE21SE0
20:00 12.107810179SE23SE0
21:00 11.208010175SE16SE0
22:00 10.808010183ENE13ENE0
23:00 9.108510173SE13SE0
minuit 10.807710173S8SE0

Graphique du 18-12-2019

 

Serveur OMMA